Fairbanks International Airport
PAFA : now visible

Airfield :











YOU CAN JOIN US ON...

 
LOGIN :

Register | Disclaimer

   EN    FR    IT 

 









Legend :    VFR   Marginal VFR   IFR   Intensive IFR   Very Intensive IFR
Visi :
Ceiling :
>= 8 km
>= 3000ft
5 to 8 km
1000 to 3000 ft
1500m to 5 km
500 to 1000 ft
800 to 1500m
200 to 500 ft
< 800m
< 200 ft
Symbols :   Thunderstorms  Fog  Heavy snow  Heavy precipitations  Wind > 20 kt







- Airport Elevation : 439 ft
- IATA code : FAI


PAFA - Fairbanks International

CURRENT METAR :
  • 210753Z 04003KT 10SM BKN110 BKN170 M16/M19 A2994 RMK AO2 SLP151 T11611189 PNO

EXPIRED METARs :
  • 210653Z 03003KT 10SM SCT110 BKN170 M15/M17 A2994 RMK AO2 SLP154 T11501172 PNO
  • 210553Z 03004KT 10SM BKN120 BKN180 M14/M16 A2994 RMK AO2 SLP155 T11391161 11100 21139 56009 PNO

TAF PAFA
Valid from the 21 at 06:00 until the 22 at 12:00 UTC


210535Z 2106/2212 04006KT P6SM SCT050 BKN100 BKN200
FM210900 04004KT P6SM VCSH SCT035 BKN050 OVC100
FM211200 04004KT 6SM -SN BR SCT015 BKN025 OVC035
FM212000 04004KT P6SM VCSH SCT035 BKN050 OVC100
PAZA FIR / North America



MET'MAP, your aeronautical weather chart ! - Copyright ORBIFLY December 2007 - Disclaimer

ORBIFLY MET'MAP TEAM :

Programming & Development : Alexandra Zaïnal
Concept & Development : Baudouin d'Aumeries
Co-Development & Prog : Marc-Olivier Méhu
Technical & hardware support : Manuel Goepfert

Contact : metmap@orbifly.com




SOURCES & CREDITS :

   NOAA       Earth
Advisory